Time;durP1;ratioP1;P1;durP2;ratioP2;P2;SDS_P1;SDS_P2;PMS_P1;PMS_P2;Temp;Humidity;BMP_temperature;BMP_pressure;BME280_temperature;BME280_humidity;BME280_pressure;Samples;Min_cycle;Max_cycle;Signal;HPM_P1;HPM_P2
2023/04/20 00:03:06;;;;;;;1999.90;999.90;;;7.70;91.10;;;;;;6733669;88;20203;-74
2023/04/20 00:13:06;;;;;;;1999.90;999.90;;;7.60;91.30;;;;;;6733592;88;20720;-74
2023/04/20 00:23:07;;;;;;;1999.90;999.90;;;7.30;91.90;;;;;;6729451;88;20237;-75
2023/04/20 00:33:07;;;;;;;1999.90;999.90;;;7.10;92.50;;;;;;6741397;88;20236;-76
2023/04/20 00:43:10;;;;;;;1999.90;999.90;;;7.10;93.10;;;;;;6731791;88;20596;-75
2023/04/20 00:53:11;;;;;;;1999.90;999.90;;;7.10;93.10;;;;;;6732502;88;20238;-75
2023/04/20 01:03:12;;;;;;;1999.90;999.90;;;7.10;93.10;;;;;;6731264;88;20261;-74
2023/04/20 01:13:12;;;;;;;1999.90;999.90;;;7.20;93.00;;;;;;6729597;88;20727;-75
2023/04/20 01:23:13;;;;;;;1999.90;999.90;;;7.30;93.30;;;;;;6726929;88;20201;-75
2023/04/20 01:33:14;;;;;;;1999.90;999.90;;;7.40;93.60;;;;;;6728682;88;20316;-75
2023/04/20 01:43:17;;;;;;;1999.90;999.90;;;7.60;93.50;;;;;;6733788;88;20686;-75
2023/04/20 01:53:18;;;;;;;1999.90;999.90;;;7.90;92.50;;;;;;6728846;88;20351;-75
2023/04/20 02:03:19;;;;;;;1999.90;999.90;;;8.10;92.00;;;;;;6731929;88;20665;-75
2023/04/20 02:13:20;;;;;;;1999.90;999.90;;;8.20;91.90;;;;;;6734289;88;20215;-75
2023/04/20 02:23:20;;;;;;;1999.90;999.90;;;8.30;92.30;;;;;;6735902;88;20200;-75
2023/04/20 02:33:21;;;;;;;1999.90;999.90;;;8.20;92.10;;;;;;6731147;88;20294;-74
2023/04/20 02:54:24;;;;;;;1999.90;999.90;;;8.20;92.50;;;;;;6726873;88;20206;-78
2023/04/20 03:04:26;;;;;;;1999.90;999.90;;;8.20;92.70;;;;;;6716193;88;20372;-78
2023/04/20 03:14:26;;;;;;;1999.90;999.90;;;8.30;93.40;;;;;;6723919;88;20307;-78
2023/04/20 03:24:27;;;;;;;1999.90;999.90;;;8.20;94.20;;;;;;6723321;88;20181;-77
2023/04/20 03:34:27;;;;;;;1999.90;999.90;;;8.20;95.90;;;;;;6722372;88;20255;-77
2023/04/20 03:44:28;;;;;;;1999.90;999.90;;;8.00;99.90;;;;;;6724080;88;20196;-77
2023/04/20 03:54:29;;;;;;;1999.90;999.90;;;7.70;99.90;;;;;;6724397;88;20197;-77
2023/04/20 04:04:29;;;;;;;1999.90;999.90;;;7.50;99.90;;;;;;6730630;88;20185;-79
2023/04/20 04:14:31;;;;;;;1999.90;999.90;;;7.50;99.90;;;;;;6724060;88;20234;-78
2023/04/20 04:24:32;;;;;;;1999.90;999.90;;;7.50;99.90;;;;;;6724161;88;20196;-78
2023/04/20 04:34:33;;;;;;;1999.90;999.90;;;7.10;99.90;;;;;;6722778;88;20316;-77
2023/04/20 04:44:34;;;;;;;1999.90;999.90;;;6.80;99.90;;;;;;6722066;88;20220;-78
2023/04/20 04:54:34;;;;;;;1999.90;999.90;;;6.90;99.90;;;;;;6722071;88;20202;-78
2023/04/20 05:04:35;;;;;;;1999.90;999.90;;;6.90;99.90;;;;;;6717823;88;20247;-78
2023/04/20 05:14:35;;;;;;;1999.90;999.90;;;7.00;99.90;;;;;;6723456;88;20192;-78
2023/04/20 05:24:36;;;;;;;1999.90;999.90;;;6.90;99.90;;;;;;6723826;88;20189;-78
2023/04/20 05:34:36;;;;;;;1999.90;999.90;;;6.90;99.90;;;;;;6726566;88;20203;-79
2023/04/20 05:44:38;;;;;;;1999.90;999.90;;;6.70;99.90;;;;;;6731870;88;20674;-79
2023/04/20 05:54:39;;;;;;;1999.90;999.90;;;6.50;99.90;;;;;;6729991;88;20226;-78
2023/04/20 06:04:41;;;;;;;1999.90;999.90;;;6.50;99.90;;;;;;6726873;88;20814;-79
2023/04/20 06:14:41;;;;;;;1999.90;999.90;;;6.40;99.90;;;;;;6708414;88;20190;-78
2023/04/20 06:24:42;;;;;;;1999.90;999.90;;;6.30;99.90;;;;;;6708356;88;20203;-78
2023/04/20 06:34:42;;;;;;;1999.90;999.90;;;6.40;99.90;;;;;;6713000;88;20520;-78
2023/04/20 06:44:43;;;;;;;1999.90;999.90;;;6.40;99.90;;;;;;6713350;88;20206;-78
2023/04/20 06:54:43;;;;;;;1999.90;999.90;;;6.70;99.90;;;;;;6708688;88;20230;-78
2023/04/20 07:04:44;;;;;;;1999.90;999.90;;;6.60;99.90;;;;;;6719249;88;20243;-77
2023/04/20 07:14:44;;;;;;;1999.90;999.90;;;6.50;99.90;;;;;;6723720;88;20254;-77
2023/04/20 07:24:45;;;;;;;1999.90;999.90;;;6.60;99.90;;;;;;6723020;88;20643;-77
2023/04/20 07:34:45;;;;;;;1999.90;999.90;;;6.60;99.90;;;;;;6717022;88;20186;-78
2023/04/20 07:44:47;;;;;;;1999.90;999.90;;;7.00;99.90;;;;;;6713994;88;20993;-77
2023/04/20 07:54:47;;;;;;;1999.90;999.90;;;7.10;99.90;;;;;;6704445;88;20216;-78
2023/04/20 08:04:48;;;;;;;1999.90;999.90;;;7.10;99.90;;;;;;6706397;88;20186;-77
2023/04/20 08:14:49;;;;;;;1999.90;999.90;;;7.10;99.90;;;;;;6703802;88;20197;-77
2023/04/20 08:24:49;;;;;;;1999.90;999.90;;;7.20;99.90;;;;;;6718271;88;20210;-77
2023/04/20 08:34:50;;;;;;;1999.90;999.90;;;7.40;99.90;;;;;;6711223;88;20205;-77
2023/04/20 08:45:11;;;;;;;1999.90;999.90;;;7.40;99.90;;;;;;6727707;77;20619;-80
2023/04/20 08:55:18;;;;;;;1999.90;999.90;;;7.40;99.90;;;;;;6705975;88;20710;-79
2023/04/20 09:05:29;;;;;;;1999.90;999.90;;;7.50;99.90;;;;;;6709474;88;20637;-79
2023/04/20 09:15:30;;;;;;;1999.90;999.90;;;7.70;99.90;;;;;;6705686;88;20210;-79
2023/04/20 09:25:31;;;;;;;1999.90;999.90;;;7.80;99.90;;;;;;6707503;88;20324;-80
2023/04/20 09:35:31;;;;;;;1999.90;999.90;;;8.40;99.90;;;;;;6710675;88;20193;-79
2023/04/20 09:45:33;;;;;;;1999.90;999.90;;;9.60;99.90;;;;;;6709347;88;20213;-79
2023/04/20 09:55:33;;;;;;;1999.90;999.90;;;9.60;99.90;;;;;;6710300;88;20195;-80
2023/04/20 10:05:35;;;;;;;1999.90;999.90;;;9.20;99.90;;;;;;6726307;88;20197;-81
2023/04/20 10:15:37;;;;;;;1999.90;999.90;;;9.20;99.90;;;;;;6720951;88;20182;-81
2023/04/20 10:25:39;;;;;;;1999.90;999.90;;;9.50;99.90;;;;;;6709571;88;20213;-79
2023/04/20 10:35:53;;;;;;;1999.90;999.90;;;10.00;99.90;;;;;;6710096;88;20197;-79
2023/04/20 10:45:53;;;;;;;1999.90;999.90;;;9.80;99.90;;;;;;6706768;88;20307;-79
2023/04/20 10:55:58;;;;;;;1999.90;999.90;;;9.40;99.90;;;;;;6706517;88;20636;-79
2023/04/20 11:06:02;;;;;;;1999.90;999.90;;;8.90;99.90;;;;;;6706243;88;20808;-78
2023/04/20 11:16:13;;;;;;;1999.90;999.90;;;9.70;99.90;;;;;;6706808;88;20173;-80
2023/04/20 11:26:14;;;;;;;1999.90;999.90;;;10.10;99.90;;;;;;6706842;88;20726;-78
2023/04/20 11:36:20;;;;;;;1999.90;999.90;;;9.90;99.90;;;;;;6704669;88;20190;-79
2023/04/20 11:46:21;;;;;;;1999.90;999.90;;;10.00;99.90;;;;;;6705488;88;20216;-79
2023/04/20 11:56:22;;;;;;;1999.90;999.90;;;10.60;99.90;;;;;;6701266;88;20218;-79
2023/04/20 12:06:22;;;;;;;1999.90;999.90;;;10.60;99.90;;;;;;6703164;88;20250;-79
2023/04/20 12:16:23;;;;;;;1999.90;999.90;;;10.80;99.90;;;;;;6708429;88;20238;-78
2023/04/20 12:26:24;;;;;;;1999.90;999.90;;;11.00;99.90;;;;;;6709031;88;20666;-81
2023/04/20 12:36:24;;;;;;;1999.90;999.90;;;11.60;99.90;;;;;;6708409;88;20651;-80
2023/04/20 12:46:25;;;;;;;1999.90;999.90;;;13.60;99.90;;;;;;6717944;88;20198;-79
2023/04/20 12:56:26;;;;;;;1999.90;999.90;;;14.50;99.90;;;;;;6708316;88;20196;-80
2023/04/20 13:06:26;;;;;;;1999.90;999.90;;;15.60;99.90;;;;;;6703278;88;20194;-80
2023/04/20 13:16:28;;;;;;;1999.90;999.90;;;15.30;99.90;;;;;;6702659;88;20202;-81
2023/04/20 13:26:28;;;;;;;1999.90;999.90;;;16.60;98.50;;;;;;6699003;88;20594;-80
2023/04/20 13:36:30;;;;;;;1999.90;999.90;;;15.80;98.70;;;;;;6702548;88;20219;-79
2023/04/20 13:46:31;;;;;;;1999.90;999.90;;;14.70;99.30;;;;;;6705992;88;20210;-80
2023/04/20 13:56:32;;;;;;;1999.90;999.90;;;14.20;98.80;;;;;;6704471;88;20340;-80
2023/04/20 14:06:33;;;;;;;1999.90;999.90;;;15.90;97.20;;;;;;6689996;88;20323;-81
2023/04/20 14:16:47;;;;;;;1999.90;999.90;;;16.20;96.00;;;;;;6701655;88;20309;-80
2023/04/20 14:26:50;;;;;;;1999.90;999.90;;;15.00;97.20;;;;;;6690812;88;20174;-80
2023/04/20 14:36:50;;;;;;;1999.90;999.90;;;14.60;96.80;;;;;;6691168;88;20232;-79
2023/04/20 14:47:32;;;;;;;1999.90;999.90;;;13.90;99.10;;;;;;6712395;77;20250;-78
2023/04/20 14:57:33;;;;;;;1999.90;999.90;;;13.40;97.70;;;;;;6724256;88;20227;-79
2023/04/20 15:07:33;;;;;;;1999.90;999.90;;;12.90;98.40;;;;;;6735694;88;20184;-78
2023/04/20 15:17:35;;;;;;;1999.90;999.90;;;13.10;99.20;;;;;;6733975;88;20216;-79
2023/04/20 15:27:35;;;;;;;1999.90;999.90;;;13.50;97.50;;;;;;6718015;88;20228;-79
2023/04/20 15:37:36;;;;;;;1999.90;999.90;;;13.40;98.10;;;;;;6723243;88;20250;-79
2023/04/20 15:47:36;;;;;;;1999.90;999.90;;;13.40;98.30;;;;;;6706120;88;20190;-79
2023/04/20 15:57:37;;;;;;;1999.90;999.90;;;14.20;98.60;;;;;;6713822;88;20654;-78
2023/04/20 16:07:37;;;;;;;1999.90;999.90;;;14.80;96.60;;;;;;6707479;88;20659;-80
2023/04/20 16:17:38;;;;;;;1999.90;999.90;;;14.50;96.60;;;;;;6711926;88;20178;-79
2023/04/20 16:27:39;;;;;;;1999.90;999.90;;;12.10;99.90;;;;;;6709214;88;20725;-80
2023/04/20 16:37:40;;;;;;;1999.90;999.90;;;11.10;99.90;;;;;;6718891;88;20190;-79
2023/04/20 16:47:40;;;;;;;1999.90;999.90;;;10.90;99.90;;;;;;6724921;88;20625;-78
2023/04/20 16:57:41;;;;;;;1999.90;999.90;;;10.70;99.90;;;;;;6710450;88;20199;-78
2023/04/20 17:07:41;;;;;;;1999.90;999.90;;;10.50;99.90;;;;;;6712367;88;20653;-79
2023/04/20 17:17:42;;;;;;;1999.90;999.90;;;10.20;99.90;;;;;;6709091;88;20231;-79
2023/04/20 17:27:42;;;;;;;1999.90;999.90;;;10.20;99.90;;;;;;6705967;88;20291;-81
2023/04/20 17:37:43;;;;;;;1999.90;999.90;;;10.30;99.90;;;;;;6704941;88;20311;-77
2023/04/20 17:47:43;;;;;;;1999.90;999.90;;;10.30;99.90;;;;;;6714677;88;20245;-79
2023/04/20 17:57:44;;;;;;;1999.90;999.90;;;10.30;99.90;;;;;;6725874;88;20187;-79
2023/04/20 18:07:45;;;;;;;1999.90;999.90;;;10.10;99.90;;;;;;6726060;88;20236;-81
2023/04/20 18:17:45;;;;;;;1999.90;999.90;;;10.00;99.90;;;;;;6729389;88;20208;-79
2023/04/20 18:27:46;;;;;;;1999.90;999.90;;;10.00;99.90;;;;;;6730107;88;20510;-78
2023/04/20 18:37:46;;;;;;;1999.90;999.90;;;9.90;99.90;;;;;;6729867;88;20230;-80
2023/04/20 18:47:47;;;;;;;1999.90;999.90;;;9.80;99.90;;;;;;6723283;88;20613;-80
2023/04/20 18:57:47;;;;;;;1999.90;999.90;;;9.70;99.90;;;;;;6722436;88;20685;-79
2023/04/20 19:07:48;;;;;;;1999.90;999.90;;;9.50;99.90;;;;;;6729661;88;20733;-80
2023/04/20 19:17:48;;;;;;;1999.90;999.90;;;9.30;99.90;;;;;;6721203;88;20194;-80
2023/04/20 19:27:49;;;;;;;1999.90;999.90;;;9.20;99.90;;;;;;6735427;88;20185;-79
2023/04/20 19:37:50;;;;;;;1999.90;999.90;;;9.10;99.90;;;;;;6732651;88;20203;-79
2023/04/20 19:47:51;;;;;;;1999.90;999.90;;;9.00;99.90;;;;;;6730411;88;20209;-80
2023/04/20 19:57:51;;;;;;;1999.90;999.90;;;8.90;99.90;;;;;;6722461;88;20150;-79
2023/04/20 20:07:53;;;;;;;1999.90;999.90;;;8.80;99.90;;;;;;6734539;88;20235;-79
2023/04/20 20:17:54;;;;;;;1999.90;999.90;;;8.70;99.90;;;;;;6726198;88;20314;-79
2023/04/20 20:27:55;;;;;;;1999.90;999.90;;;8.50;99.90;;;;;;6739097;88;20673;-78
2023/04/20 20:37:58;;;;;;;1999.90;999.90;;;8.30;99.90;;;;;;6725677;88;20287;-79
2023/04/20 20:47:59;;;;;;;1999.90;999.90;;;8.20;99.90;;;;;;6740391;77;20343;-77
2023/04/20 20:57:59;;;;;;;1999.90;999.90;;;8.00;99.90;;;;;;6726033;88;20185;-77
2023/04/20 21:08:00;;;;;;;1999.90;999.90;;;7.90;99.90;;;;;;6724084;88;20193;-77
2023/04/20 21:18:00;;;;;;;1999.90;999.90;;;7.90;99.90;;;;;;6724411;88;20647;-77
2023/04/20 21:28:01;;;;;;;1999.90;999.90;;;7.80;99.90;;;;;;6724493;88;20219;-78
2023/04/20 21:38:03;;;;;;;1999.90;999.90;;;7.70;99.90;;;;;;6721549;88;20652;-77
2023/04/20 21:48:04;;;;;;;1999.90;999.90;;;7.80;99.90;;;;;;6723867;88;20223;-78
2023/04/20 21:58:05;;;;;;;1999.90;999.90;;;7.70;99.90;;;;;;6724835;88;20210;-78
2023/04/20 22:08:06;;;;;;;1999.90;999.90;;;7.50;99.90;;;;;;6721394;88;20257;-78
2023/04/20 22:18:09;;;;;;;1999.90;999.90;;;7.50;99.90;;;;;;6722639;88;20594;-78
2023/04/20 22:28:10;;;;;;;1999.90;999.90;;;7.60;99.90;;;;;;6723730;88;20675;-78
2023/04/20 22:38:11;;;;;;;1999.90;999.90;;;7.60;99.90;;;;;;6722161;88;20182;-77
2023/04/20 22:48:12;;;;;;;1999.90;999.90;;;7.60;99.90;;;;;;6730547;88;20252;-77
2023/04/20 22:58:12;;;;;;;1999.90;999.90;;;7.50;99.90;;;;;;6729099;88;20201;-77
2023/04/20 23:08:13;;;;;;;1999.90;999.90;;;7.40;99.90;;;;;;6719431;88;20271;-77
2023/04/20 23:18:13;;;;;;;1999.90;999.90;;;7.50;99.90;;;;;;6727092;88;20196;-77
2023/04/20 23:28:14;;;;;;;1999.90;999.90;;;7.40;99.90;;;;;;6730178;88;20321;-77
2023/04/20 23:38:15;;;;;;;1999.90;999.90;;;7.50;99.90;;;;;;6731936;88;20510;-77
2023/04/20 23:48:15;;;;;;;1999.90;999.90;;;7.40;99.90;;;;;;6749667;88;20259;-78
2023/04/20 23:58:19;;;;;;;1999.90;999.90;;;7.40;99.90;;;;;;6728696;88;20177;-78
